Time,TemperatureF,DewpointF,PressureIn,WindDirection,WindDirectionDegrees,WindSpeedMPH,WindSpeedGustMPH,Humidity,HourlyPrecipIn,Conditions,Clouds,dailyrainin,SoftwareType,DateUTC
2013-01-16 00:00:00,28.8,12.9,30.08,SW,236,0.0,0.0,51,0.00,-RA,OVC,0.00,WeatherDisplay:10.37,2013-01-16 07:00:00,
2013-01-16 00:05:00,28.5,13.1,30.08,SW,236,0.0,0.0,52,0.00,-RA,OVC,0.00,WeatherDisplay:10.37,2013-01-16 07:05:00,
2013-01-16 00:10:00,28.2,12.8,30.08,SW,236,0.0,0.1,52,0.00,-RA,OVC,0.00,WeatherDisplay:10.37,2013-01-16 07:10:00,
2013-01-16 00:15:00,28.0,13.1,30.08,SW,236,0.0,0.0,53,0.00,-RA,OVC,0.00,WeatherDisplay:10.37,2013-01-16 07:15:00,
2013-01-16 00:20:00,27.8,12.9,30.08,SW,236,0.0,0.1,53,0.00,-RA,OVC,0.00,WeatherDisplay:10.37,2013-01-16 07:20:00,
2013-01-16 00:25:00,27.5,13.0,30.08,SW,236,0.0,0.0,54,0.00,-RA,OVC,0.00,WeatherDisplay:10.37,2013-01-16 07:25:00,
2013-01-16 00:30:00,27.1,13.1,30.08,SW,236,0.0,0.0,55,0.00,-RA,OVC,0.00,WeatherDisplay:10.37,2013-01-16 07:30:00,
2013-01-16 00:35:00,26.9,12.9,30.08,SW,236,0.0,0.0,55,0.00,-RA,OVC,0.00,WeatherDisplay:10.37,2013-01-16 07:35:00,
2013-01-16 00:40:00,26.5,12.5,30.08,SW,236,0.0,0.0,55,0.00,-RA,OVC,0.00,WeatherDisplay:10.37,2013-01-16 07:40:00,
2013-01-16 00:45:00,26.1,12.5,30.08,SW,236,0.0,0.0,56,0.00,-RA,OVC,0.00,WeatherDisplay:10.37,2013-01-16 07:45:00,
2013-01-16 00:50:00,25.8,12.6,30.08,SW,235,2.3,2.3,57,0.00,-RA,OVC,0.00,WeatherDisplay:10.37,2013-01-16 07:50:00,
2013-01-16 00:55:00,25.4,12.7,30.08,SW,235,0.0,0.0,58,0.00,-RA,OVC,0.00,WeatherDisplay:10.37,2013-01-16 07:55:00,
2013-01-16 01:00:00,25.2,12.5,30.08,SW,235,2.3,2.3,58,0.00,-RA,OVC,0.00,WeatherDisplay:10.37,2013-01-16 08:00:00,
2013-01-16 01:05:00,25.2,12.5,30.08,SW,235,1.1,0.0,58,0.00,-RA,OVC,0.00,WeatherDisplay:10.37,2013-01-16 08:05:00,
2013-01-16 01:10:00,25.3,12.6,30.08,SW,227,0.0,0.0,58,0.00,-RA,OVC,0.00,WeatherDisplay:10.37,2013-01-16 08:10:00,
2013-01-16 01:15:00,25.1,12.4,30.08,SW,227,0.0,0.0,58,0.00,-RA,OVC,0.00,WeatherDisplay:10.37,2013-01-16 08:15:00,
2013-01-16 01:20:00,25.1,12.4,30.08,SW,227,0.0,0.0,58,0.00,-RA,OVC,0.00,WeatherDisplay:10.37,2013-01-16 08:20:00,
2013-01-16 01:25:00,25.2,12.5,30.10,SW,227,1.1,1.1,58,0.00,-RA,OVC,0.00,WeatherDisplay:10.37,2013-01-16 08:25:00,
2013-01-16 01:30:00,25.2,12.5,30.10,SW,227,0.0,0.0,58,0.00,-RA,OVC,0.00,WeatherDisplay:10.37,2013-01-16 08:30:00,
2013-01-16 01:35:00,25.4,12.7,30.10,SW,227,2.3,2.3,58,0.00,-RA,OVC,0.00,WeatherDisplay:10.37,2013-01-16 08:35:00,
2013-01-16 01:40:00,25.7,12.6,30.10,SW,217,0.0,0.0,57,0.00,-RA,OVC,0.00,WeatherDisplay:10.37,2013-01-16 08:40:00,
2013-01-16 01:45:00,25.8,12.2,30.10,SSW,194,2.3,2.3,56,0.00,-RA,OVC,0.00,WeatherDisplay:10.37,2013-01-16 08:45:00,
2013-01-16 01:50:00,26.0,12.4,30.10,SSW,194,2.3,2.3,56,0.00,-RA,OVC,0.00,WeatherDisplay:10.37,2013-01-16 08:50:00,
2013-01-16 01:55:00,26.4,12.8,30.10,SE,145,1.1,0.0,56,0.00,-RA,OVC,0.00,WeatherDisplay:10.37,2013-01-16 08:55:00,
2013-01-16 02:00:00,26.6,12.6,30.10,SE,145,0.0,0.0,55,0.00,-RA,OVC,0.00,WeatherDisplay:10.37,2013-01-16 09:00:00,
2013-01-16 02:05:00,26.8,12.8,30.10,SE,145,0.0,0.0,55,0.00,-RA,OVC,0.00,WeatherDisplay:10.37,2013-01-16 09:05:00,
2013-01-16 02:10:00,27.1,13.1,30.10,SE,145,0.0,0.0,55,0.00,-RA,OVC,0.00,WeatherDisplay:10.37,2013-01-16 09:10:00,
2013-01-16 02:15:00,27.3,13.2,30.10,SE,145,1.1,1.1,55,0.00,-RA,OVC,0.00,WeatherDisplay:10.37,2013-01-16 09:15:00,
2013-01-16 02:20:00,27.4,12.9,30.10,SE,145,0.0,0.1,54,0.00,-RA,OVC,0.00,WeatherDisplay:10.37,2013-01-16 09:20:00,
2013-01-16 02:25:00,27.2,12.7,30.10,SE,145,0.0,0.0,54,0.00,-RA,OVC,0.00,WeatherDisplay:10.37,2013-01-16 09:25:00,
2013-01-16 02:30:00,27.1,13.1,30.10,SE,145,3.5,3.5,55,0.00,-RA,OVC,0.00,WeatherDisplay:10.37,2013-01-16 09:30:00,
2013-01-16 02:35:00,27.1,13.1,30.10,SE,145,0.0,0.0,55,0.00,-RA,OVC,0.00,WeatherDisplay:10.37,2013-01-16 09:35:00,
2013-01-16 02:40:00,27.3,13.2,30.10,SE,145,0.0,0.0,55,0.00,-RA,OVC,0.00,WeatherDisplay:10.37,2013-01-16 09:40:00,
2013-01-16 02:45:00,27.6,13.5,30.10,SE,145,0.0,0.0,55,0.00,-RA,OVC,0.00,WeatherDisplay:10.37,2013-01-16 09:45:00,
2013-01-16 02:50:00,27.8,13.7,30.10,SE,145,0.0,0.0,55,0.00,-RA,OVC,0.00,WeatherDisplay:10.37,2013-01-16 09:50:00,
2013-01-16 02:55:00,28.0,13.5,30.10,SE,145,0.0,0.0,54,0.00,-RA,OVC,0.00,WeatherDisplay:10.37,2013-01-16 09:55:00,
2013-01-16 03:00:00,27.8,13.7,30.10,SE,145,0.0,0.0,55,0.00,-RA,OVC,0.00,WeatherDisplay:10.37,2013-01-16 10:00:00,
2013-01-16 03:05:00,27.8,13.7,30.10,SE,145,0.0,0.0,55,0.00,-RA,OVC,0.00,WeatherDisplay:10.37,2013-01-16 10:05:00,
2013-01-16 03:10:00,27.6,13.9,30.10,SE,145,0.0,0.0,56,0.00,-RA,OVC,0.00,WeatherDisplay:10.37,2013-01-16 10:10:00,
2013-01-16 03:15:00,27.3,13.7,30.10,ESE,115,3.5,3.5,56,0.00,-RA,OVC,0.00,WeatherDisplay:10.37,2013-01-16 10:15:00,
2013-01-16 03:20:00,27.6,14.3,30.11,ESE,113,2.3,2.3,57,0.00,-RA,OVC,0.00,WeatherDisplay:10.37,2013-01-16 10:20:00,
2013-01-16 03:25:00,28.0,14.3,30.11,ESE,113,3.5,3.5,56,0.00,-RA,OVC,0.00,WeatherDisplay:10.37,2013-01-16 10:25:00,
2013-01-16 03:30:00,28.0,14.3,30.11,ESE,113,0.0,0.0,56,0.00,-RA,OVC,0.00,WeatherDisplay:10.37,2013-01-16 10:30:00,
2013-01-16 03:35:00,27.9,14.6,30.11,ESE,113,1.0,1.0,57,0.00,-RA,OVC,0.00,WeatherDisplay:10.37,2013-01-16 10:35:00,
2013-01-16 03:40:00,27.7,14.4,30.11,ESE,113,2.3,2.3,57,0.00,-RA,OVC,0.00,WeatherDisplay:10.37,2013-01-16 10:40:00,
2013-01-16 03:45:00,27.5,14.2,30.11,ESE,113,0.0,0.0,57,0.00,-RA,OVC,0.00,WeatherDisplay:10.37,2013-01-16 10:45:00,
2013-01-16 03:50:00,27.2,14.0,30.11,ESE,113,0.0,0.0,57,0.00,-RA,OVC,0.00,WeatherDisplay:10.37,2013-01-16 10:50:00,
2013-01-16 03:55:00,26.8,14.0,30.10,ESE,113,0.0,0.0,58,0.00,-RA,OVC,0.00,WeatherDisplay:10.37,2013-01-16 10:55:00,
2013-01-16 04:00:00,26.2,13.8,30.10,ESE,113,3.5,3.5,59,0.00,-RA,OVC,0.00,WeatherDisplay:10.37,2013-01-16 11:00:00,
2013-01-16 04:05:00,25.7,14.1,30.10,East,101,3.5,3.5,61,0.00,-RA,OVC,0.00,WeatherDisplay:10.37,2013-01-16 11:05:00,
2013-01-16 04:10:00,25.5,13.9,30.10,SE,124,4.6,4.6,61,0.00,-RA,OVC,0.00,WeatherDisplay:10.37,2013-01-16 11:10:00,
2013-01-16 04:15:00,25.2,13.6,30.10,SE,124,0.0,0.0,61,0.00,-RA,OVC,0.00,WeatherDisplay:10.37,2013-01-16 11:15:00,
2013-01-16 04:20:00,25.2,14.4,30.10,SE,124,3.5,3.5,63,0.00,-RA,OVC,0.00,WeatherDisplay:10.37,2013-01-16 11:20:00,
2013-01-16 04:25:00,25.4,14.2,30.10,ESE,123,3.5,3.5,62,0.00,-RA,OVC,0.00,WeatherDisplay:10.37,2013-01-16 11:25:00,
2013-01-16 04:30:00,25.4,14.2,30.10,SE,124,2.3,2.3,62,0.00,-RA,OVC,0.00,WeatherDisplay:10.37,2013-01-16 11:30:00,
2013-01-16 04:35:00,25.3,13.7,30.10,SE,124,0.0,0.0,61,0.00,-RA,OVC,0.00,WeatherDisplay:10.37,2013-01-16 11:35:00,
2013-01-16 04:40:00,25.2,14.0,30.10,ESE,123,0.0,0.0,62,0.00,-RA,OVC,0.00,WeatherDisplay:10.37,2013-01-16 11:40:00,
2013-01-16 04:45:00,25.0,13.8,30.10,SE,124,0.0,0.1,62,0.00,-RA,OVC,0.00,WeatherDisplay:10.37,2013-01-16 11:45:00,
2013-01-16 04:50:00,24.6,13.8,30.10,ESE,123,0.0,0.0,63,0.00,-RA,OVC,0.00,WeatherDisplay:10.37,2013-01-16 11:50:00,
2013-01-16 04:55:00,24.3,13.5,30.10,ESE,123,2.3,2.3,63,0.00,-RA,OVC,0.00,WeatherDisplay:10.37,2013-01-16 11:55:00,
2013-01-16 05:00:00,24.0,13.9,30.10,ESE,123,0.0,0.0,65,0.00,-RA,OVC,0.00,WeatherDisplay:10.37,2013-01-16 12:00:00,
2013-01-16 05:05:00,23.9,13.8,30.10,ESE,123,3.5,3.5,65,0.00,-RA,OVC,0.00,WeatherDisplay:10.37,2013-01-16 12:05:00,
2013-01-16 05:10:00,23.7,13.6,30.10,ESE,123,1.1,0.0,65,0.00,-RA,OVC,0.00,WeatherDisplay:10.37,2013-01-16 12:10:00,
2013-01-16 05:15:00,23.6,13.5,30.10,ESE,123,1.1,0.0,65,0.00,-RA,OVC,0.00,WeatherDisplay:10.37,2013-01-16 12:15:00,
2013-01-16 05:20:00,23.7,13.6,30.10,ESE,123,0.0,0.0,65,0.00,-RA,OVC,0.00,WeatherDisplay:10.37,2013-01-16 12:20:00,
2013-01-16 05:25:00,23.7,13.3,30.10,ESE,123,0.0,0.0,64,0.00,-RA,OVC,0.00,WeatherDisplay:10.37,2013-01-16 12:25:00,
2013-01-16 05:30:00,23.7,13.3,30.10,ESE,123,1.1,0.0,64,0.00,-RA,OVC,0.00,WeatherDisplay:10.37,2013-01-16 12:30:00,
2013-01-16 05:35:00,23.7,13.3,30.10,ESE,123,0.0,0.0,64,0.00,-RA,OVC,0.00,WeatherDisplay:10.37,2013-01-16 12:35:00,
2013-01-16 05:40:00,23.6,13.2,30.10,ESE,123,2.3,2.3,64,0.00,-RA,OVC,0.00,WeatherDisplay:10.37,2013-01-16 12:40:00,
2013-01-16 05:45:00,23.3,12.9,30.10,ESE,123,0.0,0.0,64,0.00,-RA,OVC,0.00,WeatherDisplay:10.37,2013-01-16 12:45:00,
2013-01-16 05:50:00,23.0,13.0,30.10,ESE,123,0.0,0.0,65,0.00,-RA,OVC,0.00,WeatherDisplay:10.37,2013-01-16 12:50:00,
2013-01-16 05:55:00,22.8,13.5,30.10,ESE,123,0.0,0.0,67,0.00,-RA,OVC,0.00,WeatherDisplay:10.37,2013-01-16 12:55:00,
2013-01-16 06:00:00,22.8,13.5,30.10,ESE,123,0.0,0.0,67,0.00,-RA,OVC,0.00,WeatherDisplay:10.37,2013-01-16 13:00:00,
2013-01-16 06:05:00,22.9,13.2,30.10,ESE,123,0.0,0.0,66,0.00,-RA,OVC,0.00,WeatherDisplay:10.37,2013-01-16 13:05:00,
2013-01-16 06:10:00,22.8,13.5,30.10,ESE,123,0.0,0.0,67,0.00,-RA,OVC,0.00,WeatherDisplay:10.37,2013-01-16 13:10:00,
2013-01-16 06:15:00,22.6,12.9,30.12,ESE,123,0.0,0.0,66,0.00,-RA,OVC,0.00,WeatherDisplay:10.37,2013-01-16 13:15:00,
2013-01-16 06:20:00,22.2,12.9,30.12,ESE,123,0.0,0.0,67,0.00,-RA,OVC,0.00,WeatherDisplay:10.37,2013-01-16 13:20:00,
2013-01-16 06:25:00,21.8,12.9,30.12,ESE,123,0.0,0.0,68,0.00,-RA,OVC,0.00,WeatherDisplay:10.37,2013-01-16 13:25:00,
2013-01-16 06:30:00,21.7,13.4,30.12,ESE,123,0.0,0.0,70,0.00,-RA,OVC,0.00,WeatherDisplay:10.37,2013-01-16 13:30:00,
2013-01-16 06:35:00,21.5,12.9,30.12,ESE,123,1.1,1.1,69,0.00,-RA,OVC,0.00,WeatherDisplay:10.37,2013-01-16 13:35:00,
2013-01-16 06:40:00,21.3,13.0,30.12,ESE,123,0.0,0.0,70,0.00,-RA,OVC,0.00,WeatherDisplay:10.37,2013-01-16 13:40:00,
2013-01-16 06:45:00,21.3,13.0,30.12,ESE,123,0.0,0.0,70,0.00,-RA,OVC,0.00,WeatherDisplay:10.37,2013-01-16 13:45:00,
2013-01-16 06:50:00,21.2,12.9,30.12,ESE,123,0.0,0.0,70,0.00,-RA,OVC,0.00,WeatherDisplay:10.37,2013-01-16 13:50:00,
2013-01-16 06:55:00,21.1,13.2,30.12,ESE,123,0.0,0.2,71,0.00,-RA,OVC,0.00,WeatherDisplay:10.37,2013-01-16 13:55:00,
2013-01-16 07:00:00,20.9,12.6,30.12,ESE,123,0.0,0.0,70,0.00,-RA,OVC,0.00,WeatherDisplay:10.37,2013-01-16 14:00:00,
2013-01-16 07:05:00,20.8,13.2,30.12,ESE,123,0.0,0.0,72,0.00,-RA,OVC,0.00,WeatherDisplay:10.37,2013-01-16 14:05:00,
2013-01-16 07:10:00,20.7,13.1,30.12,ESE,123,0.0,0.0,72,0.00,-RA,OVC,0.00,WeatherDisplay:10.37,2013-01-16 14:10:00,
2013-01-16 07:15:00,20.9,13.6,30.14,ESE,123,0.0,0.0,73,0.00,-RA,OVC,0.00,WeatherDisplay:10.37,2013-01-16 14:15:00,
2013-01-16 07:20:00,21.1,13.5,30.14,ESE,123,0.0,0.0,72,0.00,-RA,OVC,0.00,WeatherDisplay:10.37,2013-01-16 14:20:00,
2013-01-16 07:25:00,21.1,13.5,30.14,ESE,123,0.0,0.0,72,0.00,-RA,OVC,0.00,WeatherDisplay:10.37,2013-01-16 14:25:00,
2013-01-16 07:30:00,21.1,13.2,30.14,ESE,123,2.3,2.3,71,0.00,-RA,OVC,0.00,WeatherDisplay:10.37,2013-01-16 14:30:00,
2013-01-16 07:35:00,21.2,13.9,30.14,ESE,123,2.3,2.3,73,0.00,-RA,OVC,0.00,WeatherDisplay:10.37,2013-01-16 14:35:00,
2013-01-16 07:40:00,21.6,14.3,30.14,ESE,123,1.1,1.1,73,0.00,-RA,OVC,0.00,WeatherDisplay:10.37,2013-01-16 14:40:00,
2013-01-16 07:45:00,21.9,13.9,30.14,ESE,123,2.3,2.3,71,0.00,-RA,OVC,0.00,WeatherDisplay:10.37,2013-01-16 14:45:00,
2013-01-16 07:50:00,22.0,14.0,30.14,ESE,123,0.0,0.3,71,0.00,-RA,OVC,0.00,WeatherDisplay:10.37,2013-01-16 14:50:00,
2013-01-16 07:55:00,22.1,14.4,30.14,ESE,123,0.0,0.0,72,0.00,-RA,OVC,0.00,WeatherDisplay:10.37,2013-01-16 14:55:00,
2013-01-16 08:00:00,22.5,15.1,30.14,ESE,123,0.0,0.0,73,0.00,-RA,OVC,0.00,WeatherDisplay:10.37,2013-01-16 15:00:00,
2013-01-16 08:05:00,23.1,15.1,30.14,ESE,123,0.0,0.0,71,0.00,-RA,OVC,0.00,WeatherDisplay:10.37,2013-01-16 15:05:00,
2013-01-16 08:10:00,23.9,15.9,30.14,ESE,123,0.0,0.0,71,0.00,-RA,OVC,0.00,WeatherDisplay:10.37,2013-01-16 15:10:00,
2013-01-16 08:15:00,24.8,16.1,30.14,ESE,123,2.3,2.3,69,0.00,-RA,OVC,0.00,WeatherDisplay:10.37,2013-01-16 15:15:00,
2013-01-16 08:20:00,25.6,16.2,30.14,ESE,123,1.1,0.0,67,0.00,-RA,OVC,0.00,WeatherDisplay:10.37,2013-01-16 15:20:00,
2013-01-16 08:25:00,26.5,16.3,30.14,ESE,123,3.5,3.5,65,0.00,-RA,OVC,0.00,WeatherDisplay:10.37,2013-01-16 15:25:00,
2013-01-16 08:30:00,27.5,16.9,30.14,ESE,119,3.5,3.5,64,0.00,-RA,OVC,0.00,WeatherDisplay:10.37,2013-01-16 15:30:00,
2013-01-16 08:35:00,28.5,17.5,30.14,ENE,78,4.6,4.6,63,0.00,-RA,OVC,0.00,WeatherDisplay:10.37,2013-01-16 15:35:00,
2013-01-16 08:40:00,29.3,17.9,30.14,ENE,78,3.5,3.5,62,0.00,-RA,OVC,0.00,WeatherDisplay:10.37,2013-01-16 15:40:00,
2013-01-16 08:45:00,30.3,18.1,30.16,ENE,78,2.3,2.3,60,0.00,-RA,OVC,0.00,WeatherDisplay:10.37,2013-01-16 15:45:00,
2013-01-16 08:50:00,31.3,18.6,30.16,ENE,78,2.3,0.0,59,0.00,-RA,OVC,0.00,WeatherDisplay:10.37,2013-01-16 15:50:00,
2013-01-16 08:55:00,32.3,19.2,30.16,ENE,78,2.3,2.3,58,0.00,-RA,OVC,0.00,WeatherDisplay:10.37,2013-01-16 15:55:00,
2013-01-16 09:00:00,33.3,19.7,30.16,ENE,78,1.1,0.0,57,0.00,-RA,OVC,0.00,WeatherDisplay:10.37,2013-01-16 16:00:00,
2013-01-16 09:05:00,34.5,20.4,30.16,ENE,78,1.1,1.1,56,0.00,-RA,OVC,0.00,WeatherDisplay:10.37,2013-01-16 16:05:00,
2013-01-16 09:10:00,35.6,20.6,30.16,ENE,78,2.3,2.3,54,0.00,-RA,OVC,0.00,WeatherDisplay:10.37,2013-01-16 16:10:00,
2013-01-16 09:15:00,36.7,21.2,30.16,ENE,78,3.5,3.5,53,0.00,-RA,OVC,0.00,WeatherDisplay:10.37,2013-01-16 16:15:00,
2013-01-16 09:20:00,37.8,20.8,30.16,ENE,74,4.6,4.6,50,0.00,-RA,OVC,0.00,WeatherDisplay:10.37,2013-01-16 16:20:00,
2013-01-16 09:25:00,38.6,20.6,30.16,NE,45,5.8,5.8,48,0.00,-RA,OVC,0.00,WeatherDisplay:10.37,2013-01-16 16:25:00,
2013-01-16 09:30:00,39.2,20.6,30.17,NNE,28,5.8,5.8,47,0.00,-RA,OVC,0.00,WeatherDisplay:10.37,2013-01-16 16:30:00,
2013-01-16 09:35:00,39.3,20.2,30.17,NNE,24,3.5,3.5,46,0.00,-RA,OVC,0.00,WeatherDisplay:10.37,2013-01-16 16:35:00,
2013-01-16 09:40:00,39.0,19.9,30.17,NNE,22,3.5,3.5,46,0.00,-RA,OVC,0.00,WeatherDisplay:10.37,2013-01-16 16:40:00,
2013-01-16 09:45:00,38.8,19.8,30.17,NNE,22,4.6,4.6,46,0.00,-RA,OVC,0.00,WeatherDisplay:10.37,2013-01-16 16:45:00,
2013-01-16 09:50:00,38.8,19.2,30.17,NNE,19,6.9,6.9,45,0.00,-RA,OVC,0.00,WeatherDisplay:10.37,2013-01-16 16:50:00,
2013-01-16 09:55:00,38.7,19.7,30.17,NNE,19,5.0,5.0,46,0.00,-RA,OVC,0.00,WeatherDisplay:10.37,2013-01-16 16:55:00,
2013-01-16 10:00:00,38.8,19.8,30.17,NNE,19,4.6,4.6,46,0.00,-RA,OVC,0.00,WeatherDisplay:10.37,2013-01-16 17:00:00,
2013-01-16 10:05:00,39.3,19.7,30.17,NNE,19,4.0,4.0,45,0.00,-RA,OVC,0.00,WeatherDisplay:10.37,2013-01-16 17:05:00,
2013-01-16 10:10:00,40.2,20.0,30.17,NNE,18,3.5,3.5,44,0.00,-RA,OVC,0.00,WeatherDisplay:10.37,2013-01-16 17:10:00,
2013-01-16 10:15:00,41.2,19.8,30.17,NNE,18,3.5,3.5,42,0.00,-RA,OVC,0.00,WeatherDisplay:10.37,2013-01-16 17:15:00,
2013-01-16 10:20:00,41.8,20.4,30.17,NNE,18,3.5,3.5,42,0.00,-RA,OVC,0.00,WeatherDisplay:10.37,2013-01-16 17:20:00,
2013-01-16 10:25:00,42.2,20.2,30.17,NNE,18,5.0,5.0,41,0.00,-RA,OVC,0.00,WeatherDisplay:10.37,2013-01-16 17:25:00,
2013-01-16 10:30:00,42.4,19.8,30.17,NNE,18,4.6,4.6,40,0.00,-RA,OVC,0.00,WeatherDisplay:10.37,2013-01-16 17:30:00,
2013-01-16 10:35:00,42.7,19.4,30.17,NNE,21,3.5,3.5,39,0.00,-RA,OVC,0.00,WeatherDisplay:10.37,2013-01-16 17:35:00,
2013-01-16 10:40:00,43.1,19.2,30.17,NNE,21,3.5,3.5,38,0.00,-RA,OVC,0.00,WeatherDisplay:10.37,2013-01-16 17:40:00,
2013-01-16 10:45:00,43.4,18.8,30.17,ENE,73,3.5,3.5,37,0.00,-RA,OVC,0.00,WeatherDisplay:10.37,2013-01-16 17:45:00,
2013-01-16 10:50:00,43.9,19.3,30.17,NE,53,6.9,6.9,37,0.00,-RA,OVC,0.00,WeatherDisplay:10.37,2013-01-16 17:50:00,
2013-01-16 10:55:00,44.3,19.6,30.17,NNE,28,3.5,3.5,37,0.00,-RA,OVC,0.00,WeatherDisplay:10.37,2013-01-16 17:55:00,
2013-01-16 11:00:00,44.8,19.4,30.17,NNE,13,3.5,3.5,36,0.00,-RA,OVC,0.00,WeatherDisplay:10.37,2013-01-16 18:00:00,
2013-01-16 11:05:00,45.4,20.0,30.17,North,9,6.0,6.0,36,0.00,-RA,OVC,0.00,WeatherDisplay:10.37,2013-01-16 18:05:00,
2013-01-16 11:10:00,45.9,20.4,30.17,NNE,17,6.9,6.9,36,0.00,-RA,OVC,0.00,WeatherDisplay:10.37,2013-01-16 18:10:00,
2013-01-16 11:15:00,46.5,20.3,30.17,NNE,13,4.6,4.6,35,0.00,-RA,OVC,0.00,WeatherDisplay:10.37,2013-01-16 18:15:00,
2013-01-16 11:20:00,47.2,20.2,30.16,North,5,6.9,6.9,34,0.00,-RA,OVC,0.00,WeatherDisplay:10.37,2013-01-16 18:20:00,
2013-01-16 11:25:00,47.7,20.0,30.16,NW,323,10.4,10.4,33,0.00,-RA,OVC,0.00,WeatherDisplay:10.37,2013-01-16 18:25:00,
2013-01-16 11:30:00,47.9,19.4,30.16,NNE,18,9.2,9.2,32,0.00,-RA,OVC,0.00,WeatherDisplay:10.37,2013-01-16 18:30:00,
2013-01-16 11:35:00,48.0,20.2,30.15,NNW,344,9.2,9.2,33,0.00,-RA,OVC,0.00,WeatherDisplay:10.37,2013-01-16 18:35:00,
2013-01-16 11:40:00,48.2,19.7,30.15,North,355,9.2,9.2,32,0.00,-RA,OVC,0.00,WeatherDisplay:10.37,2013-01-16 18:40:00,
2013-01-16 11:45:00,48.3,19.8,30.15,NNW,330,9.2,9.2,32,0.00,-RA,OVC,0.00,WeatherDisplay:10.37,2013-01-16 18:45:00,
2013-01-16 11:50:00,48.4,19.9,30.15,NW,326,6.9,6.9,32,0.00,-RA,OVC,0.00,WeatherDisplay:10.37,2013-01-16 18:50:00,
2013-01-16 11:55:00,49.0,20.4,30.15,NNE,24,9.2,9.2,32,0.00,-RA,OVC,0.00,WeatherDisplay:10.37,2013-01-16 18:55:00,
2013-01-16 12:01:00,49.7,20.2,30.15,NNW,329,11.5,11.5,31,0.00,-RA,OVC,0.00,WeatherDisplay:10.37,2013-01-16 19:01:00,
2013-01-16 12:06:00,50.0,19.7,30.15,NW,323,8.1,8.1,30,0.00,-RA,OVC,0.00,WeatherDisplay:10.37,2013-01-16 19:06:00,
2013-01-16 12:11:00,49.8,20.3,30.15,NW,323,6.9,6.9,31,0.00,-RA,OVC,0.00,WeatherDisplay:10.37,2013-01-16 19:11:00,
2013-01-16 12:16:00,49.9,20.4,30.15,NNW,330,4.6,4.6,31,0.00,-RA,OVC,0.00,WeatherDisplay:10.37,2013-01-16 19:16:00,
2013-01-16 12:21:00,50.1,19.8,30.15,North,350,8.1,8.1,30,0.00,-RA,OVC,0.00,WeatherDisplay:10.37,2013-01-16 19:21:00,
2013-01-16 12:26:00,50.5,20.2,30.15,NNW,340,4.6,4.6,30,0.00,-RA,OVC,0.00,WeatherDisplay:10.37,2013-01-16 19:26:00,
2013-01-16 12:31:00,50.6,20.3,30.15,NNW,345,4.6,4.6,30,0.00,-RA,OVC,0.00,WeatherDisplay:10.37,2013-01-16 19:31:00,
2013-01-16 12:36:00,50.6,20.3,30.14,North,355,5.8,5.8,30,0.00,-RA,OVC,0.00,WeatherDisplay:10.37,2013-01-16 19:36:00,
2013-01-16 12:41:00,51.0,20.6,30.14,NNW,331,4.6,4.6,30,0.00,-RA,OVC,0.00,WeatherDisplay:10.37,2013-01-16 19:41:00,
2013-01-16 12:46:00,51.1,19.9,30.14,North,11,8.1,8.1,29,0.00,-RA,OVC,0.00,WeatherDisplay:10.37,2013-01-16 19:46:00,
2013-01-16 12:51:00,51.2,20.0,30.14,North,360,9.0,9.0,29,0.00,-RA,OVC,0.00,WeatherDisplay:10.37,2013-01-16 19:51:00,
2013-01-16 12:56:00,51.2,20.0,30.14,NNW,338,5.8,5.8,29,0.00,-RA,OVC,0.00,WeatherDisplay:10.37,2013-01-16 19:56:00,
2013-01-16 13:01:00,51.4,20.2,30.14,North,360,5.8,5.8,29,0.00,-RA,OVC,0.00,WeatherDisplay:10.37,2013-01-16 20:01:00,
2013-01-16 13:06:00,51.6,20.3,30.14,North,355,7.0,7.0,29,0.00,-RA,OVC,0.00,WeatherDisplay:10.37,2013-01-16 20:06:00,
2013-01-16 13:11:00,51.8,19.7,30.14,NW,320,8.1,8.1,28,0.00,-RA,OVC,0.00,WeatherDisplay:10.37,2013-01-16 20:11:00,
2013-01-16 13:16:00,51.7,20.4,30.14,North,350,4.0,4.0,29,0.00,-RA,OVC,0.00,WeatherDisplay:10.37,2013-01-16 20:16:00,
2013-01-16 13:21:00,51.7,19.6,30.14,NW,324,4.0,4.0,28,0.00,-RA,OVC,0.00,WeatherDisplay:10.37,2013-01-16 20:21:00,
2013-01-16 13:26:00,51.9,19.8,30.14,NNW,336,4.6,4.6,28,0.00,-RA,OVC,0.00,WeatherDisplay:10.37,2013-01-16 20:26:00,
2013-01-16 13:31:00,52.2,20.0,30.14,North,5,3.5,3.5,28,0.00,-RA,OVC,0.00,WeatherDisplay:10.37,2013-01-16 20:31:00,
2013-01-16 13:36:00,52.1,19.9,30.14,NNW,336,5.8,5.8,28,0.00,-RA,OVC,0.00,WeatherDisplay:10.37,2013-01-16 20:36:00,
2013-01-16 13:41:00,52.2,20.0,30.14,NNW,339,3.5,3.5,28,0.00,-RA,OVC,0.00,WeatherDisplay:10.37,2013-01-16 20:41:00,
2013-01-16 13:46:00,52.1,19.9,30.14,NW,325,3.5,3.5,28,0.00,-RA,OVC,0.00,WeatherDisplay:10.37,2013-01-16 20:46:00,
2013-01-16 13:51:00,52.1,19.9,30.14,NW,323,5.8,5.8,28,0.00,-RA,OVC,0.00,WeatherDisplay:10.37,2013-01-16 20:51:00,
2013-01-16 13:56:00,52.1,19.9,30.14,NNW,328,3.5,3.5,28,0.00,-RA,OVC,0.00,WeatherDisplay:10.37,2013-01-16 20:56:00,
2013-01-16 14:01:00,52.1,19.9,30.14,NW,317,4.0,4.0,28,0.00,-RA,OVC,0.00,WeatherDisplay:10.37,2013-01-16 21:01:00,
2013-01-16 14:06:00,52.1,19.9,30.14,NW,319,3.5,3.5,28,0.00,-RA,OVC,0.00,WeatherDisplay:10.37,2013-01-16 21:06:00,
2013-01-16 14:11:00,52.2,20.0,30.14,WNW,298,6.9,6.9,28,0.00,-RA,OVC,0.00,WeatherDisplay:10.37,2013-01-16 21:11:00,
2013-01-16 14:16:00,52.3,20.1,30.15,WNW,299,4.6,4.6,28,0.00,-RA,OVC,0.00,WeatherDisplay:10.37,2013-01-16 21:16:00,
2013-01-16 14:21:00,52.2,20.0,30.15,North,355,3.5,3.5,28,0.00,-RA,OVC,0.00,WeatherDisplay:10.37,2013-01-16 21:21:00,
2013-01-16 14:26:00,52.3,20.1,30.14,North,355,2.3,2.3,28,0.00,-RA,OVC,0.00,WeatherDisplay:10.37,2013-01-16 21:26:00,
2013-01-16 14:31:00,52.5,20.3,30.14,NNE,26,5.8,5.8,28,0.00,-RA,OVC,0.00,WeatherDisplay:10.37,2013-01-16 21:31:00,
2013-01-16 14:36:00,52.6,20.4,30.15,NNW,333,2.3,2.3,28,0.00,-RA,OVC,0.00,WeatherDisplay:10.37,2013-01-16 21:36:00,
2013-01-16 14:41:00,52.8,20.5,30.15,NE,42,4.6,4.6,28,0.00,-RA,OVC,0.00,WeatherDisplay:10.37,2013-01-16 21:41:00,
2013-01-16 14:46:00,52.8,20.5,30.15,North,355,4.6,4.6,28,0.00,-RA,OVC,0.00,WeatherDisplay:10.37,2013-01-16 21:46:00,
2013-01-16 14:51:00,52.8,20.5,30.15,NW,324,4.6,4.6,28,0.00,-RA,OVC,0.00,WeatherDisplay:10.37,2013-01-16 21:51:00,
2013-01-16 14:56:00,52.8,20.5,30.15,NE,36,8.1,8.1,28,0.00,-RA,OVC,0.00,WeatherDisplay:10.37,2013-01-16 21:56:00,
2013-01-16 15:01:00,52.7,20.5,30.15,NNE,23,5.8,5.8,28,0.00,-RA,OVC,0.00,WeatherDisplay:10.37,2013-01-16 22:01:00,
2013-01-16 15:06:00,52.8,20.5,30.15,North,355,3.5,3.5,28,0.00,-RA,OVC,0.00,WeatherDisplay:10.37,2013-01-16 22:06:00,
2013-01-16 15:09:00,52.7,20.5,30.15,NNW,336,4.6,4.6,28,0.00,-RA,OVC,0.00,WeatherDisplay:10.37,2013-01-16 22:09:00,
2013-01-16 15:11:00,52.7,20.5,30.15,NNW,336,4.6,4.6,28,0.00,-RA,OVC,0.00,WeatherDisplay:10.37,2013-01-16 22:11:00,
2013-01-16 15:16:00,52.7,20.5,30.15,NNW,336,4.6,4.6,28,0.00,-RA,OVC,0.00,WeatherDisplay:10.37,2013-01-16 22:16:00,
2013-01-16 15:21:00,52.7,20.5,30.15,NNW,336,4.6,4.6,28,0.00,-RA,OVC,0.00,WeatherDisplay:10.37,2013-01-16 22:21:00,
2013-01-16 15:26:00,52.1,19.9,30.15,North,10,5.8,5.8,28,0.00,-RA,OVC,0.00,WeatherDisplay:10.37,2013-01-16 22:26:00,
2013-01-16 15:31:00,51.9,19.8,30.15,NNW,329,3.5,3.5,28,0.00,-RA,OVC,0.00,WeatherDisplay:10.37,2013-01-16 22:31:00,
2013-01-16 15:36:00,52.0,20.7,30.15,NNW,331,2.3,2.3,29,0.00,-RA,OVC,0.00,WeatherDisplay:10.37,2013-01-16 22:36:00,
2013-01-16 15:41:00,52.2,20.0,30.15,NNW,331,3.5,3.5,28,0.00,-RA,OVC,0.00,WeatherDisplay:10.37,2013-01-16 22:41:00,
2013-01-16 15:46:00,52.3,20.9,30.15,NNW,332,2.3,2.3,29,0.00,-RA,OVC,0.00,WeatherDisplay:10.37,2013-01-16 22:46:00,
2013-01-16 15:51:00,52.3,20.9,30.15,NNW,332,2.3,2.3,29,0.00,-RA,OVC,0.00,WeatherDisplay:10.37,2013-01-16 22:51:00,
2013-01-16 15:56:00,52.3,20.1,30.15,NNW,332,2.3,2.3,28,0.00,-RA,OVC,0.00,WeatherDisplay:10.37,2013-01-16 22:56:00,
2013-01-16 16:01:00,52.2,20.0,30.15,NNW,332,3.5,3.5,28,0.00,-RA,OVC,0.00,WeatherDisplay:10.37,2013-01-16 23:01:00,
2013-01-16 16:06:00,52.0,19.9,30.15,NNW,332,2.3,2.3,28,0.00,-RA,OVC,0.00,WeatherDisplay:10.37,2013-01-16 23:06:00,
2013-01-16 16:11:00,51.8,20.5,30.15,NNW,332,0.0,0.0,29,0.00,-RA,OVC,0.00,WeatherDisplay:10.37,2013-01-16 23:11:00,
2013-01-16 16:16:00,51.8,20.5,30.15,NNW,332,3.5,3.5,29,0.00,-RA,OVC,0.00,WeatherDisplay:10.37,2013-01-16 23:16:00,
2013-01-16 16:21:00,51.6,20.3,30.15,NNW,332,1.0,0.0,29,0.00,-RA,OVC,0.00,WeatherDisplay:10.37,2013-01-16 23:21:00,
2013-01-16 16:26:00,51.3,20.1,30.18,NNW,333,3.5,3.5,29,0.00,-RA,OVC,0.00,WeatherDisplay:10.37,2013-01-16 23:26:00,
2013-01-16 16:31:00,50.9,20.5,30.18,NNW,332,1.1,1.1,30,0.00,-RA,OVC,0.00,WeatherDisplay:10.37,2013-01-16 23:31:00,
2013-01-16 16:36:00,50.4,20.1,30.18,NNW,332,0.0,0.0,30,0.00,-RA,OVC,0.00,WeatherDisplay:10.37,2013-01-16 23:36:00,
2013-01-16 16:41:00,50.0,20.5,30.18,NNW,332,1.1,0.0,31,0.00,-RA,OVC,0.00,WeatherDisplay:10.37,2013-01-16 23:41:00,
2013-01-16 16:46:00,49.6,20.2,30.18,NNW,332,0.0,0.0,31,0.00,-RA,OVC,0.00,WeatherDisplay:10.37,2013-01-16 23:46:00,
2013-01-16 16:51:00,49.1,19.7,30.18,NNW,332,2.3,2.3,31,0.00,-RA,OVC,0.00,WeatherDisplay:10.37,2013-01-16 23:51:00,
2013-01-16 16:56:00,48.7,20.1,30.18,NNW,332,0.0,0.0,32,0.00,-RA,OVC,0.00,WeatherDisplay:10.37,2013-01-16 23:56:00,
2013-01-16 17:01:00,48.2,19.7,30.18,NNW,332,0.0,0.0,32,0.00,-RA,OVC,0.00,WeatherDisplay:10.37,2013-01-17 00:01:00,
2013-01-16 17:06:00,47.7,20.0,30.18,NNW,332,1.0,0.0,33,0.00,-RA,OVC,0.00,WeatherDisplay:10.37,2013-01-17 00:06:00,
2013-01-16 17:11:00,47.0,20.0,30.18,NNW,327,3.5,3.5,34,0.00,-RA,OVC,0.00,WeatherDisplay:10.37,2013-01-17 00:11:00,
2013-01-16 17:16:00,46.4,19.5,30.18,NNW,327,2.3,2.3,34,0.00,-RA,OVC,0.00,WeatherDisplay:10.37,2013-01-17 00:16:00,
2013-01-16 17:21:00,45.9,19.8,30.18,NNW,327,0.0,0.0,35,0.00,-RA,OVC,0.00,WeatherDisplay:10.37,2013-01-17 00:21:00,
2013-01-16 17:26:00,45.4,19.3,30.18,NNW,327,0.0,0.0,35,0.00,-RA,OVC,0.00,WeatherDisplay:10.37,2013-01-17 00:26:00,
2013-01-16 17:31:00,44.8,19.4,30.18,NNW,327,0.0,0.0,36,0.00,-RA,OVC,0.00,WeatherDisplay:10.37,2013-01-17 00:31:00,
2013-01-16 17:36:00,44.1,19.5,30.18,NNW,327,0.0,0.0,37,0.00,-RA,OVC,0.00,WeatherDisplay:10.37,2013-01-17 00:36:00,
2013-01-16 17:41:00,43.4,19.5,30.18,NNW,327,0.0,0.0,38,0.00,-RA,OVC,0.00,WeatherDisplay:10.37,2013-01-17 00:41:00,
2013-01-16 17:46:00,42.6,19.3,30.18,NNW,327,0.0,0.0,39,0.00,-RA,OVC,0.00,WeatherDisplay:10.37,2013-01-17 00:46:00,
2013-01-16 17:51:00,41.8,19.2,30.18,NNW,327,0.0,0.0,40,0.00,-RA,OVC,0.00,WeatherDisplay:10.37,2013-01-17 00:51:00,
2013-01-16 17:56:00,41.1,19.2,30.18,NNW,327,0.0,0.0,41,0.00,-RA,OVC,0.00,WeatherDisplay:10.37,2013-01-17 00:56:00,
2013-01-16 18:01:00,40.6,19.3,30.18,NNW,327,1.1,0.0,42,0.00,-RA,OVC,0.00,WeatherDisplay:10.37,2013-01-17 01:01:00,
2013-01-16 18:06:00,40.0,19.3,30.22,NNW,327,0.0,0.1,43,0.00,-RA,OVC,0.00,WeatherDisplay:10.37,2013-01-17 01:06:00,
2013-01-16 18:11:00,39.3,19.2,30.22,NNW,327,2.3,2.3,44,0.00,-RA,OVC,0.00,WeatherDisplay:10.37,2013-01-17 01:11:00,
2013-01-16 18:16:00,38.7,19.2,30.22,NNW,327,0.0,0.0,45,0.00,-RA,OVC,0.00,WeatherDisplay:10.37,2013-01-17 01:16:00,
2013-01-16 18:21:00,38.1,19.1,30.22,NNW,327,2.3,2.3,46,0.00,-RA,OVC,0.00,WeatherDisplay:10.37,2013-01-17 01:21:00,
2013-01-16 18:26:00,37.8,18.8,30.24,NNW,327,0.0,0.0,46,0.00,-RA,OVC,0.00,WeatherDisplay:10.37,2013-01-17 01:26:00,
2013-01-16 18:31:00,37.5,19.1,30.24,NNW,327,0.0,0.0,47,0.00,-RA,OVC,0.00,WeatherDisplay:10.37,2013-01-17 01:31:00,
2013-01-16 18:36:00,37.1,18.7,30.24,NNW,327,0.0,0.0,47,0.00,-RA,OVC,0.00,WeatherDisplay:10.37,2013-01-17 01:36:00,
2013-01-16 18:41:00,36.7,18.8,30.24,NNW,327,1.1,1.1,48,0.00,-RA,OVC,0.00,WeatherDisplay:10.37,2013-01-17 01:41:00,
2013-01-16 18:46:00,36.4,19.0,30.24,NNW,327,0.0,0.0,49,0.00,-RA,OVC,0.00,WeatherDisplay:10.37,2013-01-17 01:46:00,
2013-01-16 18:51:00,36.0,18.7,30.24,NNW,327,2.3,2.3,49,0.00,-RA,OVC,0.00,WeatherDisplay:10.37,2013-01-17 01:51:00,
2013-01-16 18:56:00,35.8,19.0,30.24,NNW,327,1.1,0.0,50,0.00,-RA,OVC,0.00,WeatherDisplay:10.37,2013-01-17 01:56:00,
2013-01-16 19:01:00,35.5,18.7,30.24,NNW,327,0.0,0.0,50,0.00,-RA,OVC,0.00,WeatherDisplay:10.37,2013-01-17 02:01:00,
2013-01-16 19:06:00,35.3,19.0,30.24,NNW,327,0.0,0.0,51,0.00,-RA,OVC,0.00,WeatherDisplay:10.37,2013-01-17 02:06:00,
2013-01-16 19:11:00,35.2,18.9,30.24,NNW,327,0.0,0.0,51,0.00,-RA,OVC,0.00,WeatherDisplay:10.37,2013-01-17 02:11:00,
2013-01-16 19:16:00,34.9,18.6,30.24,NNW,327,0.0,0.0,51,0.00,-RA,OVC,0.00,WeatherDisplay:10.37,2013-01-17 02:16:00,
2013-01-16 19:21:00,34.6,18.8,30.24,NNW,327,0.0,0.0,52,0.00,-RA,OVC,0.00,WeatherDisplay:10.37,2013-01-17 02:21:00,
2013-01-16 19:26:00,34.2,18.8,30.26,NNW,327,0.0,0.0,53,0.00,-RA,OVC,0.00,WeatherDisplay:10.37,2013-01-17 02:26:00,
2013-01-16 19:31:00,33.9,18.6,30.26,NNW,327,0.0,0.0,53,0.00,-RA,OVC,0.00,WeatherDisplay:10.37,2013-01-17 02:31:00,
2013-01-16 19:36:00,33.7,19.2,30.26,NNW,327,0.0,0.0,55,0.00,-RA,OVC,0.00,WeatherDisplay:10.37,2013-01-17 02:36:00,
2013-01-16 19:41:00,33.8,18.9,30.26,NNW,327,0.0,0.0,54,0.00,-RA,OVC,0.00,WeatherDisplay:10.37,2013-01-17 02:41:00,
2013-01-16 19:46:00,33.9,19.0,30.26,NNW,327,0.0,0.0,54,0.00,-RA,OVC,0.00,WeatherDisplay:10.37,2013-01-17 02:46:00,
2013-01-16 19:51:00,33.7,20.5,30.26,NNW,327,0.0,0.0,58,0.00,-RA,OVC,0.00,WeatherDisplay:10.37,2013-01-17 02:51:00,
2013-01-16 19:56:00,33.5,18.6,30.27,NNW,327,0.0,0.0,54,0.00,-RA,OVC,0.00,WeatherDisplay:10.37,2013-01-17 02:56:00,
2013-01-16 20:01:00,33.2,19.2,30.27,NNW,327,0.0,0.0,56,0.00,-RA,OVC,0.00,WeatherDisplay:10.37,2013-01-17 03:01:00,
2013-01-16 20:06:00,33.0,19.0,30.27,NNW,327,1.1,1.1,56,0.00,-RA,OVC,0.00,WeatherDisplay:10.37,2013-01-17 03:06:00,
2013-01-16 20:11:00,33.2,19.6,30.27,NNW,327,1.1,0.0,57,0.00,-RA,OVC,0.00,WeatherDisplay:10.37,2013-01-17 03:11:00,
2013-01-16 20:16:00,33.3,19.7,30.27,NNW,327,0.0,0.0,57,0.00,-RA,OVC,0.00,WeatherDisplay:10.37,2013-01-17 03:16:00,
2013-01-16 20:21:00,33.4,19.8,30.28,NNW,327,0.0,0.0,57,0.00,-RA,OVC,0.00,WeatherDisplay:10.37,2013-01-17 03:21:00,
2013-01-16 20:26:00,33.4,19.8,30.28,NNW,327,0.0,0.0,57,0.00,-RA,OVC,0.00,WeatherDisplay:10.37,2013-01-17 03:26:00,
2013-01-16 20:31:00,33.4,19.8,30.28,NNW,327,0.0,0.0,57,0.00,-RA,OVC,0.00,WeatherDisplay:10.37,2013-01-17 03:31:00,
2013-01-16 20:36:00,33.4,19.8,30.28,NNW,327,0.0,0.0,57,0.00,-RA,OVC,0.00,WeatherDisplay:10.37,2013-01-17 03:36:00,
2013-01-16 20:42:00,33.1,19.9,30.28,NNW,327,0.0,0.0,58,0.00,-RA,OVC,0.00,WeatherDisplay:10.37,2013-01-17 03:42:00,
2013-01-16 20:47:00,32.9,19.7,30.28,NNW,327,0.0,0.0,58,0.00,-RA,OVC,0.00,WeatherDisplay:10.37,2013-01-17 03:47:00,
2013-01-16 20:52:00,32.5,19.7,30.28,NNW,327,2.3,2.3,59,0.00,-RA,OVC,0.00,WeatherDisplay:10.37,2013-01-17 03:52:00,
2013-01-16 20:57:00,32.2,19.9,30.28,NNW,327,0.0,0.3,60,0.00,-RA,OVC,0.00,WeatherDisplay:10.37,2013-01-17 03:57:00,
2013-01-16 21:02:00,32.0,19.7,30.28,NNW,327,1.1,1.1,60,0.00,-RA,OVC,0.00,WeatherDisplay:10.37,2013-01-17 04:02:00,
2013-01-16 21:07:00,31.9,19.6,30.28,NNW,327,0.0,0.0,60,0.00,-RA,OVC,0.00,WeatherDisplay:10.37,2013-01-17 04:07:00,
2013-01-16 21:12:00,31.9,19.6,30.28,NNW,327,0.0,0.0,60,0.00,-RA,OVC,0.00,WeatherDisplay:10.37,2013-01-17 04:12:00,
2013-01-16 21:17:00,31.8,19.5,30.29,NNW,327,0.0,0.0,60,0.00,-RA,OVC,0.00,WeatherDisplay:10.37,2013-01-17 04:17:00,
2013-01-16 21:22:00,31.6,19.3,30.29,NNW,327,0.0,0.0,60,0.00,-RA,OVC,0.00,WeatherDisplay:10.37,2013-01-17 04:22:00,
2013-01-16 21:27:00,31.2,18.9,30.29,NNW,327,0.0,0.0,60,0.00,-RA,OVC,0.00,WeatherDisplay:10.37,2013-01-17 04:27:00,
2013-01-16 21:32:00,30.6,18.3,30.29,NNW,327,0.0,0.0,60,0.00,-RA,OVC,0.00,WeatherDisplay:10.37,2013-01-17 04:32:00,
2013-01-16 21:37:00,30.1,18.3,30.29,NNW,327,0.0,0.0,61,0.00,-RA,OVC,0.00,WeatherDisplay:10.37,2013-01-17 04:37:00,
2013-01-16 21:42:00,29.7,18.6,30.29,NNW,327,0.0,0.0,63,0.00,-RA,OVC,0.00,WeatherDisplay:10.37,2013-01-17 04:42:00,
2013-01-16 21:47:00,29.6,18.9,30.29,NNW,327,0.0,0.0,64,0.00,-RA,OVC,0.00,WeatherDisplay:10.37,2013-01-17 04:47:00,
2013-01-16 21:52:00,29.5,18.8,30.29,NNW,327,0.0,0.0,64,0.00,-RA,OVC,0.00,WeatherDisplay:10.37,2013-01-17 04:52:00,
2013-01-16 21:57:00,29.4,18.7,30.29,NNW,327,0.0,0.0,64,0.00,-RA,OVC,0.00,WeatherDisplay:10.37,2013-01-17 04:57:00,
2013-01-16 22:01:00,29.2,18.2,30.29,NNW,327,0.0,0.0,63,0.00,-RA,OVC,0.00,WeatherDisplay:10.37,2013-01-17 05:01:00,
2013-01-16 22:02:00,29.2,18.2,30.29,NNW,327,0.0,0.0,63,0.00,-RA,OVC,0.00,WeatherDisplay:10.37,2013-01-17 05:02:00,
2013-01-16 22:03:00,29.1,18.4,30.29,NNW,327,0.0,0.0,64,0.00,-RA,OVC,0.00,WeatherDisplay:10.37,2013-01-17 05:03:00,
2013-01-16 22:04:00,29.0,18.3,30.29,NNW,327,0.0,0.0,64,0.00,-RA,OVC,0.00,WeatherDisplay:10.37,2013-01-17 05:04:00,
2013-01-16 22:09:00,29.0,18.7,30.29,NNW,327,0.0,0.0,65,0.00,-RA,OVC,0.00,WeatherDisplay:10.37,2013-01-17 05:09:00,
2013-01-16 22:14:00,28.9,18.2,30.29,NNW,327,0.0,0.0,64,0.00,-RA,OVC,0.00,WeatherDisplay:10.37,2013-01-17 05:14:00,
2013-01-16 22:19:00,28.7,18.4,30.29,NNW,327,0.0,0.0,65,0.00,-RA,OVC,0.00,WeatherDisplay:10.37,2013-01-17 05:19:00,
2013-01-16 22:24:00,28.5,18.2,30.29,NNW,327,1.1,0.0,65,0.00,-RA,OVC,0.00,WeatherDisplay:10.37,2013-01-17 05:24:00,
2013-01-16 22:29:00,28.2,17.9,30.29,NNW,327,0.0,0.0,65,0.00,-RA,OVC,0.00,WeatherDisplay:10.37,2013-01-17 05:29:00,
2013-01-16 22:34:00,28.1,18.2,30.29,NNW,327,0.0,0.0,66,0.00,-RA,OVC,0.00,WeatherDisplay:10.37,2013-01-17 05:34:00,
2013-01-16 22:39:00,27.9,18.0,30.29,NNW,327,0.0,0.0,66,0.00,-RA,OVC,0.00,WeatherDisplay:10.37,2013-01-17 05:39:00,
2013-01-16 22:44:00,27.8,17.9,30.29,NNW,327,0.0,0.0,66,0.00,-RA,OVC,0.00,WeatherDisplay:10.37,2013-01-17 05:44:00,
2013-01-16 22:49:00,27.9,18.0,30.29,NNW,327,0.0,0.0,66,0.00,-RA,OVC,0.00,WeatherDisplay:10.37,2013-01-17 05:49:00,
2013-01-16 22:54:00,27.9,18.0,30.29,NNW,327,0.0,0.0,66,0.00,-RA,OVC,0.00,WeatherDisplay:10.37,2013-01-17 05:54:00,
2013-01-16 22:59:00,28.0,18.1,30.29,NNW,327,0.0,0.0,66,0.00,-RA,OVC,0.00,WeatherDisplay:10.37,2013-01-17 05:59:00,
2013-01-16 23:04:00,28.1,18.2,30.29,NNW,327,0.0,0.0,66,0.00,-RA,OVC,0.00,WeatherDisplay:10.37,2013-01-17 06:04:00,
2013-01-16 23:09:00,28.2,18.3,30.29,NNW,327,0.0,0.0,66,0.00,-RA,OVC,0.00,WeatherDisplay:10.37,2013-01-17 06:09:00,
2013-01-16 23:14:00,28.5,18.6,30.29,NNW,327,0.0,0.0,66,0.00,-RA,OVC,0.00,WeatherDisplay:10.37,2013-01-17 06:14:00,
2013-01-16 23:19:00,28.8,18.9,30.29,NNW,327,0.0,0.0,66,0.00,-RA,OVC,0.00,WeatherDisplay:10.37,2013-01-17 06:19:00,
2013-01-16 23:24:00,29.1,18.8,30.29,NNW,327,0.0,0.0,65,0.00,-RA,OVC,0.00,WeatherDisplay:10.37,2013-01-17 06:24:00,
2013-01-16 23:29:00,29.3,18.6,30.29,NNW,327,0.0,0.0,64,0.00,-RA,OVC,0.00,WeatherDisplay:10.37,2013-01-17 06:29:00,
2013-01-16 23:34:00,28.9,17.9,30.29,NNW,327,0.0,0.0,63,0.00,-RA,OVC,0.00,WeatherDisplay:10.37,2013-01-17 06:34:00,
2013-01-16 23:39:00,28.3,17.7,30.29,NNW,327,0.0,0.0,64,0.00,-RA,OVC,0.00,WeatherDisplay:10.37,2013-01-17 06:39:00,
2013-01-16 23:44:00,27.8,17.6,30.29,NNW,327,0.0,0.0,65,0.00,-RA,OVC,0.00,WeatherDisplay:10.37,2013-01-17 06:44:00,
2013-01-16 23:49:00,27.6,17.7,30.29,NNW,327,0.0,0.0,66,0.00,-RA,OVC,0.00,WeatherDisplay:10.37,2013-01-17 06:49:00,
2013-01-16 23:54:00,27.3,17.4,30.29,NNW,327,0.0,0.0,66,0.00,-RA,OVC,0.00,WeatherDisplay:10.37,2013-01-17 06:54:00,
2013-01-16 23:59:00,26.9,17.0,30.29,NNW,327,0.0,0.0,66,0.00,-RA,OVC,0.00,WeatherDisplay:10.37,2013-01-17 06:59:00,